createdAt,value
2019-05-10T00:00:08.792Z,13.55
2019-05-10T00:00:50.024Z,13.62
2019-05-10T00:01:30.382Z,13.61
2019-05-10T00:02:10.823Z,13.63
2019-05-10T00:02:51.154Z,13.8
2019-05-10T00:03:31.579Z,13.86
2019-05-10T00:04:12.365Z,13.81
2019-05-10T00:04:52.748Z,13.72
2019-05-10T00:05:33.286Z,13.72
2019-05-10T00:06:13.625Z,13.75
2019-05-10T00:06:55.839Z,13.72
2019-05-10T00:07:37.960Z,13.72
2019-05-10T00:08:20.543Z,13.81
2019-05-10T00:09:04.117Z,13.86
2019-05-10T00:09:44.355Z,13.73
2019-05-10T00:10:27.074Z,13.79
2019-05-10T00:11:07.514Z,13.76
2019-05-10T00:11:49.643Z,13.73
2019-05-10T00:12:33.929Z,13.76
2019-05-10T00:13:14.486Z,13.75
2019-05-10T00:13:55.010Z,13.84
2019-05-10T00:14:35.292Z,13.73
2019-05-10T00:15:16.195Z,13.68
2019-05-10T00:15:57.128Z,13.68
2019-05-10T00:16:38.997Z,13.72
2019-05-10T00:17:22.317Z,13.76
2019-05-10T00:18:06.414Z,13.65
2019-05-10T00:18:49.421Z,13.79
2019-05-10T00:19:31.276Z,13.73
2019-05-10T00:20:15.733Z,13.81
2019-05-10T00:21:06.154Z,13.72
2019-05-10T00:21:48.493Z,13.83
2019-05-10T00:23:51.450Z,13.81
2019-05-10T00:24:31.868Z,13.79
2019-05-10T00:25:12.363Z,13.75
2019-05-10T00:25:59.519Z,13.72
2019-05-10T00:26:41.444Z,13.66
2019-05-10T00:27:21.854Z,13.68
2019-05-10T00:28:02.220Z,13.69
2019-05-10T00:28:43.086Z,13.72
2019-05-10T00:29:24.027Z,13.66
2019-05-10T00:30:04.225Z,13.71
2019-05-10T00:30:44.594Z,13.62
2019-05-10T00:31:24.992Z,13.69
2019-05-10T00:32:05.370Z,13.66
2019-05-10T00:33:26.241Z,13.62
2019-05-10T00:34:08.600Z,13.59
2019-05-10T00:34:48.782Z,13.66
2019-05-10T00:35:29.302Z,13.65
2019-05-10T00:36:11.692Z,13.66
2019-05-10T00:36:54.783Z,13.68
2019-05-10T00:42:21.364Z,13.54
2019-05-10T00:43:02.383Z,13.63
2019-05-10T00:43:43.047Z,13.62
2019-05-10T00:44:23.436Z,13.61
2019-05-10T00:45:06.828Z,13.62
2019-05-10T00:45:47.263Z,13.59
2019-05-10T00:46:30.740Z,13.55
2019-05-10T00:47:11.053Z,13.5
2019-05-10T00:47:52.381Z,13.51
2019-05-10T00:49:52.637Z,13.53
2019-05-10T00:53:05.774Z,13.72
2019-05-10T00:53:58.803Z,13.57
2019-05-10T00:55:01.594Z,13.61
2019-05-10T00:56:31.331Z,13.59
2019-05-10T00:57:12.982Z,13.59
2019-05-10T00:57:55.662Z,13.54
2019-05-10T00:58:38.293Z,13.51
2019-05-10T00:59:19.151Z,13.59
2019-05-10T00:59:59.574Z,13.48
2019-05-10T01:00:39.923Z,13.51
2019-05-10T01:01:24.452Z,13.59
2019-05-10T01:02:04.697Z,13.53
2019-05-10T01:02:45.105Z,13.5
2019-05-10T01:03:25.571Z,13.55
2019-05-10T01:04:06.019Z,13.61
2019-05-10T01:06:31.768Z,13.63
2019-05-10T01:07:27.912Z,13.66
2019-05-10T01:09:38.841Z,13.55
2019-05-10T01:10:20.845Z,13.65
2019-05-10T01:11:01.238Z,13.57
2019-05-10T01:11:41.648Z,13.57
2019-05-10T01:12:22.320Z,13.55
2019-05-10T01:13:02.771Z,13.57
2019-05-10T01:13:43.112Z,13.59
2019-05-10T01:14:23.445Z,13.59
2019-05-10T01:15:03.850Z,13.47
2019-05-10T01:15:46.788Z,13.51
2019-05-10T01:16:24.608Z,13.53
2019-05-10T01:17:05.068Z,13.54
2019-05-10T01:17:45.341Z,13.47
2019-05-10T01:18:25.748Z,13.47
2019-05-10T01:19:06.127Z,13.43
2019-05-10T01:19:46.514Z,13.48
2019-05-10T01:20:27.164Z,13.44
2019-05-10T01:21:47.838Z,13.48
2019-05-10T01:22:28.271Z,13.53
2019-05-10T01:23:08.530Z,13.61
2019-05-10T01:23:48.950Z,13.54
2019-05-10T01:24:29.312Z,13.61
2019-05-10T01:25:09.747Z,13.59
2019-05-10T01:25:50.046Z,13.68
2019-05-10T01:26:30.427Z,13.65
2019-05-10T01:27:10.883Z,13.71
2019-05-10T01:27:51.234Z,13.73
2019-05-10T01:28:31.605Z,13.76
2019-05-10T01:29:12.002Z,13.75
2019-05-10T01:29:52.405Z,13.88
2019-05-10T01:30:32.801Z,13.75
2019-05-10T01:31:16.800Z,13.75
2019-05-10T01:31:57.285Z,13.81
2019-05-10T01:32:37.553Z,13.84
2019-05-10T01:33:17.949Z,13.88
2019-05-10T01:33:58.369Z,13.96
2019-05-10T01:34:38.789Z,14.02
2019-05-10T01:35:19.129Z,13.96
2019-05-10T01:35:59.513Z,13.94
2019-05-10T01:36:40.227Z,13.96
2019-05-10T01:37:20.533Z,13.9
2019-05-10T01:38:00.927Z,13.86
2019-05-10T01:38:41.450Z,13.93
2019-05-10T01:39:21.863Z,13.86
2019-05-10T01:40:02.294Z,13.86
2019-05-10T01:40:42.777Z,13.79
2019-05-10T01:41:24.550Z,13.81
2019-05-10T01:42:05.486Z,13.76
2019-05-10T01:42:45.884Z,13.81
2019-05-10T01:44:35.005Z,13.71
2019-05-10T01:45:14.795Z,13.65
2019-05-10T01:45:55.040Z,13.69
2019-05-10T01:46:35.438Z,13.69
2019-05-10T01:47:15.873Z,13.86
2019-05-10T01:47:57.755Z,13.72
2019-05-10T01:48:38.221Z,13.76
2019-05-10T01:49:18.715Z,13.81
2019-05-10T01:49:59.873Z,13.86
2019-05-10T01:50:40.159Z,13.87
2019-05-10T01:51:20.571Z,13.86
2019-05-10T01:52:02.395Z,13.91
2019-05-10T01:52:42.746Z,13.91
2019-05-10T01:53:23.132Z,13.88
2019-05-10T01:54:05.677Z,13.76
2019-05-10T01:54:46.132Z,13.83
2019-05-10T01:55:26.442Z,13.91
2019-05-10T01:56:06.829Z,13.79
2019-05-10T01:56:47.255Z,13.69
2019-05-10T01:57:27.665Z,13.66
2019-05-10T01:58:08.035Z,13.69
2019-05-10T01:58:48.433Z,13.75
2019-05-10T01:59:28.804Z,13.76
2019-05-10T02:00:09.166Z,13.79
2019-05-10T02:00:49.605Z,13.69
2019-05-10T02:01:29.927Z,13.75
2019-05-10T02:02:10.491Z,13.73
2019-05-10T02:02:51.384Z,13.76
2019-05-10T02:03:31.830Z,13.9
2019-05-10T02:04:12.136Z,13.91
2019-05-10T02:04:52.900Z,13.81
2019-05-10T02:05:34.023Z,13.91
2019-05-10T02:06:16.446Z,13.93
2019-05-10T02:06:56.611Z,13.91
2019-05-10T02:07:37.195Z,13.88
2019-05-10T02:08:17.523Z,13.93
2019-05-10T02:08:58.009Z,13.99
2019-05-10T02:09:38.624Z,13.9
2019-05-10T02:10:18.775Z,13.99
2019-05-10T02:10:59.341Z,13.88
2019-05-10T02:11:39.957Z,13.94
2019-05-10T02:13:01.538Z,13.93
2019-05-10T02:13:42.045Z,13.86
2019-05-10T02:14:22.615Z,13.83
2019-05-10T02:15:43.227Z,13.99
2019-05-10T02:16:23.585Z,13.9
2019-05-10T02:17:03.927Z,13.99
2019-05-10T02:17:46.643Z,13.96
2019-05-10T02:18:27.279Z,13.9
2019-05-10T02:19:07.676Z,13.93
2019-05-10T02:19:48.045Z,13.86
2019-05-10T02:20:28.538Z,13.84
2019-05-10T02:21:09.128Z,13.83
2019-05-10T02:21:49.430Z,13.88
2019-05-10T02:23:10.312Z,13.87
2019-05-10T02:23:51.732Z,13.88
2019-05-10T02:24:32.671Z,13.88
2019-05-10T02:25:13.011Z,13.94
2019-05-10T02:26:08.218Z,13.94
2019-05-10T02:26:35.167Z,13.96
2019-05-10T02:27:15.596Z,13.96
2019-05-10T02:27:55.962Z,13.83
2019-05-10T02:28:36.343Z,13.87
2019-05-10T02:29:16.698Z,13.88
2019-05-10T02:29:57.175Z,13.83
2019-05-10T02:30:38.065Z,13.84
2019-05-10T02:31:21.396Z,13.83
2019-05-10T02:31:58.832Z,13.87
2019-05-10T02:32:39.176Z,13.86
2019-05-10T02:33:19.579Z,13.81
2019-05-10T02:34:00.161Z,13.86
2019-05-10T02:34:40.537Z,13.81
2019-05-10T02:35:20.913Z,13.84
2019-05-10T02:36:01.338Z,13.8
2019-05-10T02:36:41.675Z,13.87
2019-05-10T02:37:22.204Z,13.69
2019-05-10T02:38:03.310Z,13.81
2019-05-10T02:38:44.351Z,13.81
2019-05-10T02:39:24.497Z,13.86
2019-05-10T02:40:05.783Z,13.83
2019-05-10T02:40:46.172Z,13.79
2019-05-10T02:41:28.403Z,13.81
2019-05-10T02:42:08.811Z,13.75
2019-05-10T02:42:50.098Z,13.76
2019-05-10T02:43:30.578Z,13.79
2019-05-10T02:44:11.181Z,13.73
2019-05-10T02:44:51.596Z,13.73
2019-05-10T02:45:32.050Z,13.75
2019-05-10T02:46:12.459Z,13.76
2019-05-10T02:46:52.950Z,13.65
2019-05-10T02:47:33.508Z,13.84
2019-05-10T02:48:13.931Z,13.75
2019-05-10T02:48:58.864Z,13.87
2019-05-10T02:49:39.261Z,13.84
2019-05-10T02:50:22.778Z,13.88
2019-05-10T02:51:04.609Z,13.86
2019-05-10T02:51:44.964Z,13.86
2019-05-10T02:52:27.131Z,13.71
2019-05-10T02:53:07.564Z,13.69
2019-05-10T02:53:47.961Z,13.79
2019-05-10T02:54:28.885Z,13.68
2019-05-10T02:55:08.936Z,13.72
2019-05-10T02:55:49.604Z,13.69
2019-05-10T02:56:31.569Z,13.8
2019-05-10T02:57:10.475Z,13.68
2019-05-10T02:57:53.872Z,13.75
2019-05-10T02:58:32.803Z,13.84
2019-05-10T02:59:13.086Z,13.88
2019-05-10T02:59:53.513Z,13.84
2019-05-10T03:00:35.918Z,13.86
2019-05-10T03:01:16.314Z,13.87
2019-05-10T03:01:57.265Z,13.9
2019-05-10T03:02:37.716Z,13.86
2019-05-10T03:03:18.049Z,13.87
2019-05-10T03:03:58.431Z,13.94
2019-05-10T03:04:38.820Z,13.98
2019-05-10T03:05:19.221Z,13.96
2019-05-10T03:05:59.599Z,13.94
2019-05-10T03:06:39.994Z,13.98
2019-05-10T03:07:20.353Z,13.94
2019-05-10T03:08:00.777Z,13.94
2019-05-10T03:08:41.198Z,14.02
2019-05-10T03:09:21.735Z,14.02
2019-05-10T03:10:04.694Z,14.08
2019-05-10T03:10:45.226Z,13.98
2019-05-10T03:11:25.575Z,13.99
2019-05-10T03:12:06.182Z,13.98
2019-05-10T03:12:47.989Z,13.93
2019-05-10T03:13:28.400Z,13.96
2019-05-10T03:14:09.075Z,13.93
2019-05-10T03:14:49.675Z,13.99
2019-05-10T03:15:30.113Z,13.94
2019-05-10T03:16:10.429Z,13.98
2019-05-10T03:16:53.368Z,13.98
2019-05-10T03:17:33.703Z,13.91
2019-05-10T03:18:14.136Z,13.94
2019-05-10T03:18:54.497Z,14.01
2019-05-10T03:19:34.873Z,14.01
2019-05-10T03:20:16.214Z,14.01
2019-05-10T03:20:56.807Z,13.98
2019-05-10T03:21:37.220Z,13.98
2019-05-10T03:22:17.570Z,14.01
2019-05-10T03:22:57.964Z,14.02
2019-05-10T03:23:38.399Z,14.06
2019-05-10T03:24:18.806Z,14.04
2019-05-10T03:24:59.155Z,13.99
2019-05-10T03:25:39.737Z,14.04
2019-05-10T03:26:21.879Z,13.98
2019-05-10T03:27:02.309Z,13.96
2019-05-10T03:27:42.677Z,13.93
2019-05-10T03:28:23.201Z,13.93
2019-05-10T03:29:04.461Z,13.9
2019-05-10T03:29:45.787Z,13.87
2019-05-10T03:30:26.182Z,13.83
2019-05-10T03:31:06.569Z,13.84
2019-05-10T03:31:47.009Z,13.87
2019-05-10T03:32:27.387Z,13.83
2019-05-10T03:33:08.460Z,13.9
2019-05-10T03:33:55.391Z,13.9
2019-05-10T03:34:28.708Z,13.96
2019-05-10T03:35:09.004Z,13.9
2019-05-10T03:35:52.713Z,13.84
2019-05-10T03:36:33.847Z,13.87
2019-05-10T03:37:14.194Z,13.88
2019-05-10T03:37:54.616Z,13.87
2019-05-10T03:38:43.009Z,13.76
2019-05-10T03:39:25.573Z,13.79
2019-05-10T03:40:19.669Z,13.86
2019-05-10T03:41:05.731Z,13.66
2019-05-10T03:41:48.794Z,13.79
2019-05-10T03:42:39.900Z,13.84
2019-05-10T03:43:29.538Z,13.83
2019-05-10T03:44:12.766Z,13.79
2019-05-10T03:44:53.165Z,13.84
2019-05-10T03:45:33.824Z,13.86
2019-05-10T03:46:16.165Z,13.87
2019-05-10T03:48:42.205Z,13.81
2019-05-10T03:51:40.612Z,13.8
2019-05-10T03:52:23.475Z,13.81
2019-05-10T03:53:04.922Z,13.86
2019-05-10T03:56:26.142Z,13.84
2019-05-10T03:57:15.020Z,13.87
2019-05-10T04:01:14.975Z,13.84
2019-05-10T04:01:54.910Z,13.73
2019-05-10T04:02:41.506Z,13.76
2019-05-10T04:03:33.301Z,13.81
2019-05-10T04:04:17.362Z,13.79
2019-05-10T04:04:57.720Z,13.76
2019-05-10T04:05:37.967Z,13.72
2019-05-10T04:06:20.026Z,13.72
2019-05-10T04:07:00.498Z,13.81
2019-05-10T04:07:41.974Z,13.73
2019-05-10T04:08:22.353Z,13.88
2019-05-10T04:09:02.665Z,13.9
2019-05-10T04:09:43.045Z,13.87
2019-05-10T04:10:23.485Z,13.79
2019-05-10T04:11:03.884Z,13.75
2019-05-10T04:11:45.846Z,13.79
2019-05-10T04:12:26.280Z,13.87
2019-05-10T04:13:07.301Z,13.76
2019-05-10T04:13:47.640Z,13.73
2019-05-10T04:14:28.666Z,13.72
2019-05-10T04:15:09.720Z,13.69
2019-05-10T04:16:33.147Z,13.71
2019-05-10T04:18:32.965Z,13.69
2019-05-10T04:19:22.551Z,13.71
2019-05-10T04:20:02.966Z,13.66
2019-05-10T04:20:44.015Z,13.72
2019-05-10T04:21:26.341Z,13.75
2019-05-10T04:22:07.525Z,13.79
2019-05-10T04:22:49.977Z,13.75
2019-05-10T04:24:14.531Z,13.79
2019-05-10T04:24:54.967Z,13.87
2019-05-10T04:25:36.800Z,13.79
2019-05-10T04:26:17.166Z,13.75
2019-05-10T04:26:57.619Z,13.72
2019-05-10T04:27:37.934Z,13.79
2019-05-10T05:09:58.258Z,13.24
2019-05-10T05:10:41.557Z,13.24
2019-05-10T05:11:22.123Z,13.27
2019-05-10T05:12:05.595Z,13.38
2019-05-10T05:12:50.836Z,13.35
2019-05-10T05:13:31.454Z,13.35
2019-05-10T05:14:11.927Z,13.35
2019-05-10T05:14:52.230Z,13.35
2019-05-10T05:15:32.700Z,13.31
2019-05-10T05:16:14.927Z,13.38
2019-05-10T05:16:54.132Z,13.46
2019-05-10T05:17:35.957Z,13.48
2019-05-10T05:18:19.206Z,13.48
2019-05-10T05:18:59.730Z,13.5
2019-05-10T05:19:40.906Z,13.48
2019-05-10T05:20:20.755Z,13.5
2019-05-10T05:21:17.183Z,13.59
2019-05-10T05:21:57.829Z,13.46
2019-05-10T05:22:38.090Z,13.65
2019-05-10T05:24:31.406Z,13.61
2019-05-10T05:25:13.991Z,13.59
2019-05-10T05:25:54.415Z,13.71
2019-05-10T05:26:34.825Z,13.75
2019-05-10T05:27:15.386Z,13.71
2019-05-10T05:28:07.048Z,13.69
2019-05-10T05:28:37.095Z,13.62
2019-05-10T05:29:17.920Z,13.71
2019-05-10T05:29:59.237Z,13.71
2019-05-10T05:30:39.797Z,13.68
2019-05-10T05:31:22.967Z,13.79
2019-05-10T05:34:55.803Z,13.62
2019-05-10T05:35:35.759Z,13.63
2019-05-10T05:36:17.389Z,13.66
2019-05-10T05:36:59.443Z,13.75
2019-05-10T05:37:39.894Z,13.72
2019-05-10T05:38:24.235Z,13.75
2019-05-10T05:39:04.662Z,13.75
2019-05-10T05:39:45.111Z,13.75
2019-05-10T05:40:25.557Z,13.87
2019-05-10T05:41:06.788Z,13.88
2019-05-10T05:41:49.535Z,13.96
2019-05-10T05:42:29.155Z,13.87
2019-05-10T05:43:09.649Z,13.87
2019-05-10T05:43:50.065Z,13.87
2019-05-10T05:44:34.472Z,13.98
2019-05-10T05:45:16.543Z,13.96
2019-05-10T05:45:59.900Z,13.99
2019-05-10T05:46:42.787Z,13.98
2019-05-10T05:47:23.298Z,13.98
2019-05-10T05:48:03.966Z,14.06
2019-05-10T05:48:44.357Z,14.08
2019-05-10T05:49:24.851Z,14.11
2019-05-10T05:50:05.600Z,14.11
2019-05-10T05:50:47.427Z,14.05
2019-05-10T05:51:30.043Z,14.11
2019-05-10T05:52:11.943Z,14.09
2019-05-10T05:52:52.313Z,14.11
2019-05-10T05:53:35.652Z,14.09
2019-05-10T05:54:14.890Z,14.11
2019-05-10T05:54:57.351Z,14.11
2019-05-10T05:55:36.761Z,14.16
2019-05-10T05:56:17.262Z,14.21
2019-05-10T05:56:57.704Z,14.27
2019-05-10T05:57:38.031Z,14.35
2019-05-10T05:58:26.382Z,14.31
2019-05-10T05:59:00.921Z,14.23
2019-05-10T05:59:41.417Z,14.35
2019-05-10T06:00:21.846Z,14.21
2019-05-10T06:01:04.126Z,14.2
2019-05-10T06:01:44.602Z,14.26
2019-05-10T06:02:27.002Z,14.11
2019-05-10T06:03:07.532Z,14.04
2019-05-10T06:03:49.832Z,14.05
2019-05-10T06:04:32.092Z,14.16
2019-05-10T06:05:12.494Z,14.13
2019-05-10T06:05:54.548Z,13.96
2019-05-10T06:07:19.216Z,14.12
2019-05-10T06:11:46.005Z,14.31
2019-05-10T06:12:27.034Z,14.19
2019-05-10T06:13:12.218Z,14.31
2019-05-10T06:13:52.676Z,14.26
2019-05-10T06:14:34.046Z,14.19
2019-05-10T06:15:16.327Z,14.27
2019-05-10T06:15:59.972Z,14.34
2019-05-10T06:16:37.171Z,14.34
2019-05-10T06:17:17.637Z,14.41
2019-05-10T06:18:03.198Z,14.53
2019-05-10T06:18:47.189Z,14.49
2019-05-10T06:19:29.303Z,14.49
2019-05-10T06:20:08.612Z,14.6
2019-05-10T06:20:49.119Z,14.61
2019-05-10T06:21:30.798Z,14.67
2019-05-10T06:22:11.180Z,14.57
2019-05-10T06:23:05.492Z,14.56
2019-05-10T06:23:35.546Z,14.61
2019-05-10T06:24:16.516Z,14.56
2019-05-10T06:24:58.564Z,14.6
2019-05-10T06:25:42.520Z,14.6
2019-05-10T06:26:28.294Z,14.64
2019-05-10T06:27:06.029Z,14.6
2019-05-10T06:27:49.107Z,14.61
2019-05-10T06:28:56.793Z,14.61
2019-05-10T06:29:17.193Z,14.64
2019-05-10T06:29:51.317Z,14.69
2019-05-10T06:30:32.648Z,14.72
2019-05-10T06:31:13.301Z,14.69
2019-05-10T06:31:54.468Z,14.72
2019-05-10T06:32:35.705Z,14.82
2019-05-10T06:33:17.885Z,14.87
2019-05-10T06:34:00.284Z,14.91
2019-05-10T06:34:40.784Z,14.91
2019-05-10T06:35:24.137Z,14.98
2019-05-10T06:36:04.646Z,14.97
2019-05-10T06:36:47.760Z,14.82
2019-05-10T06:37:31.433Z,14.9
2019-05-10T06:38:10.762Z,14.82
2019-05-10T06:38:53.118Z,14.69
2019-05-10T06:39:33.867Z,14.86
2019-05-10T06:40:15.318Z,14.85
2019-05-10T06:40:55.594Z,14.78
2019-05-10T06:41:36.996Z,14.79
2019-05-10T06:42:19.458Z,14.79
2019-05-10T06:43:00.657Z,14.78
2019-05-10T06:43:45.544Z,14.79
2019-05-10T06:44:24.804Z,14.82
2019-05-10T06:45:04.307Z,14.9
2019-05-10T06:45:52.283Z,15.01
2019-05-10T06:46:29.272Z,14.94
2019-05-10T06:47:11.159Z,14.93
2019-05-10T06:47:53.356Z,14.93
2019-05-10T06:48:33.569Z,15.04
2019-05-10T06:49:12.948Z,15.01
2019-05-10T06:49:54.747Z,15.16
2019-05-10T06:50:35.351Z,15.07
2019-05-10T06:51:16.407Z,15.05
2019-05-10T06:51:59.733Z,15.01
2019-05-10T06:52:41.264Z,14.93
2019-05-10T06:53:23.330Z,14.95
2019-05-10T06:54:04.645Z,14.91
2019-05-10T06:54:45.092Z,14.8
2019-05-10T06:55:25.918Z,14.78
2019-05-10T06:56:06.341Z,14.82
2019-05-10T06:56:46.763Z,14.9
2019-05-10T06:57:28.352Z,14.97
2019-05-10T06:58:10.712Z,14.9
2019-05-10T06:58:51.102Z,14.98
2019-05-10T06:59:31.548Z,14.91
2019-05-10T07:00:12.203Z,14.85
2019-05-10T07:00:53.497Z,14.9
2019-05-10T07:01:38.105Z,14.8
2019-05-10T07:02:19.875Z,14.74
2019-05-10T07:02:55.400Z,14.78
2019-05-10T07:03:38.671Z,14.71
2019-05-10T07:04:21.676Z,14.63
2019-05-10T07:05:09.667Z,14.6
2019-05-10T07:05:50.191Z,14.46
2019-05-10T07:06:30.936Z,14.53
2019-05-10T07:07:20.273Z,14.57
2019-05-10T07:07:52.650Z,14.52
2019-05-10T07:08:43.589Z,14.54
2019-05-10T07:10:10.251Z,14.38
2019-05-10T07:10:35.623Z,14.53
2019-05-10T07:11:15.992Z,14.41
2019-05-10T07:11:56.413Z,14.52
2019-05-10T07:12:38.674Z,14.52
2019-05-10T07:13:18.950Z,14.54
2019-05-10T07:13:59.365Z,14.44
2019-05-10T07:14:45.761Z,14.39
2019-05-10T07:15:24.048Z,14.31
2019-05-10T07:16:04.414Z,14.35
2019-05-10T07:16:50.676Z,14.29
2019-05-10T07:17:40.707Z,14.19
2019-05-10T07:18:16.646Z,14.26
2019-05-10T07:18:54.688Z,14.29
2019-05-10T07:19:41.196Z,14.23
2019-05-10T07:20:17.934Z,14.21
2019-05-10T07:21:00.707Z,14.2
2019-05-10T07:21:44.284Z,14.27
2019-05-10T07:23:47.563Z,14.31
2019-05-10T07:24:27.656Z,14.16
2019-05-10T07:25:11.331Z,14.26
2019-05-10T07:25:54.419Z,14.17
2019-05-10T07:28:51.585Z,14.09
2019-05-10T07:29:30.533Z,14.08
2019-05-10T07:30:12.313Z,14.13
2019-05-10T07:30:53.827Z,14.19
2019-05-10T07:31:36.350Z,14.24
2019-05-10T07:32:21.800Z,14.24
2019-05-10T07:33:01.970Z,14.17
2019-05-10T07:33:43.063Z,14.17
2019-05-10T07:34:23.625Z,14.11
2019-05-10T07:35:18.383Z,14.16
2019-05-10T07:36:04.397Z,14.11
2019-05-10T07:36:54.485Z,14.04
2019-05-10T07:37:35.068Z,14.02
2019-05-10T07:38:15.691Z,13.91
2019-05-10T07:38:56.117Z,13.81
2019-05-10T07:39:39.150Z,13.75
2019-05-10T07:40:19.892Z,13.73
2019-05-10T07:41:00.500Z,13.75
2019-05-10T07:41:41.173Z,13.66
2019-05-10T07:42:24.186Z,13.66
2019-05-10T07:43:05.605Z,13.59
2019-05-10T07:43:48.184Z,13.63
2019-05-10T07:44:31.624Z,13.65
2019-05-10T07:45:13.036Z,13.66
2019-05-10T07:45:58.487Z,13.46
2019-05-10T07:46:39.855Z,13.59
2019-05-10T07:47:17.802Z,13.63
2019-05-10T07:48:02.256Z,13.71
2019-05-10T07:48:46.138Z,13.69
2019-05-10T07:49:23.728Z,13.75
2019-05-10T07:50:03.753Z,13.8
2019-05-10T07:50:49.121Z,13.75
2019-05-10T07:51:28.540Z,13.83
2019-05-10T07:52:08.019Z,13.86
2019-05-10T07:52:49.370Z,13.76
2019-05-10T07:53:30.405Z,13.79
2019-05-10T07:54:12.292Z,13.75
2019-05-10T07:54:52.480Z,13.79
2019-05-10T07:55:37.719Z,13.81
2019-05-10T07:56:18.585Z,13.76
2019-05-10T07:56:59.281Z,13.68
2019-05-10T07:57:41.889Z,13.72
2019-05-10T07:58:27.572Z,13.61
2019-05-10T07:59:08.052Z,13.65
2019-05-10T07:59:57.449Z,13.55
2019-05-10T08:00:37.844Z,13.53
2019-05-10T08:01:28.597Z,13.48
2019-05-10T08:02:05.676Z,13.55
2019-05-10T08:02:50.819Z,13.61
2019-05-10T08:03:26.438Z,13.57
2019-05-10T08:04:08.948Z,13.46
2019-05-10T08:04:53.504Z,13.48
2019-05-10T08:05:32.844Z,13.57
2019-05-10T08:06:15.275Z,13.54
2019-05-10T08:06:55.632Z,13.59
2019-05-10T08:07:38.656Z,13.51
2019-05-10T08:08:19.245Z,13.5
2019-05-10T08:09:06.226Z,13.51
2019-05-10T08:09:46.679Z,13.55
2019-05-10T08:10:30.588Z,13.55
2019-05-10T08:11:11.784Z,13.46
2019-05-10T08:11:53.870Z,13.5
2019-05-10T08:12:35.092Z,13.61
2019-05-10T08:13:15.285Z,13.59
2019-05-10T08:14:05.954Z,13.63
2019-05-10T08:14:39.352Z,13.86
2019-05-10T08:15:24.598Z,13.86
2019-05-10T08:16:05.271Z,13.94
2019-05-10T08:16:49.686Z,13.99
2019-05-10T08:20:08.838Z,13.88
2019-05-10T08:20:53.729Z,13.94
2019-05-10T08:21:32.005Z,13.94
2019-05-10T08:22:09.427Z,13.83
2019-05-10T08:22:52.667Z,13.88
2019-05-10T08:23:33.722Z,13.94
2019-05-10T08:24:16.645Z,14.01
2019-05-10T08:24:56.919Z,14.01
2019-05-10T08:25:41.627Z,14.11
2019-05-10T08:26:28.362Z,14.11
2019-05-10T08:27:15.039Z,14.11
2019-05-10T08:27:57.405Z,14.13
2019-05-10T08:28:44.409Z,14.12
2019-05-10T08:29:36.475Z,14.23
2019-05-10T08:30:24.987Z,14.31
2019-05-10T08:30:59.056Z,14.39
2019-05-10T08:31:46.129Z,14.44
2019-05-10T08:32:25.300Z,14.61
2019-05-10T08:33:09.595Z,14.63
2019-05-10T08:33:53.544Z,14.71
2019-05-10T08:34:28.788Z,14.83
2019-05-10T08:35:15.903Z,14.9
2019-05-10T08:35:52.251Z,14.97
2019-05-10T08:36:32.147Z,15.05
2019-05-10T08:37:58.915Z,15.09
2019-05-10T08:38:46.044Z,15.04
2019-05-10T08:39:27.283Z,15.15
2019-05-10T08:40:09.834Z,15.28
2019-05-10T08:40:53.351Z,15.37
2019-05-10T08:41:33.364Z,15.37
2019-05-10T08:42:32.410Z,15.38
2019-05-10T08:43:04.486Z,15.48
2019-05-10T08:43:43.972Z,15.59
2019-05-10T08:44:27.291Z,15.64
2019-05-10T08:45:09.628Z,15.67
2019-05-10T08:45:53.054Z,15.71
2019-05-10T08:46:41.141Z,15.85
2019-05-10T08:47:24.721Z,15.81
2019-05-10T08:48:01.887Z,15.84
2019-05-10T08:48:50.226Z,15.71
2019-05-10T08:50:26.266Z,15.76
2019-05-10T08:50:53.924Z,15.7
2019-05-10T08:51:29.682Z,15.7
2019-05-10T08:52:19.255Z,15.67
2019-05-10T08:53:15.584Z,15.71
2019-05-10T08:53:57.784Z,15.67
2019-05-10T08:54:33.214Z,15.66
2019-05-10T08:55:14.865Z,15.56
2019-05-10T08:55:58.827Z,15.66
2019-05-10T08:56:36.372Z,15.68
2019-05-10T08:57:18.826Z,15.68
2019-05-10T08:57:59.354Z,15.73
2019-05-10T08:58:42.376Z,15.7
2019-05-10T08:59:26.729Z,15.67
2019-05-10T09:00:08.657Z,15.59
2019-05-10T09:00:56.586Z,15.62
2019-05-10T09:02:42.939Z,15.64
2019-05-10T09:03:27.699Z,15.55
2019-05-10T09:04:10.947Z,15.48
2019-05-10T09:04:50.272Z,15.53
2019-05-10T09:05:33.896Z,15.51
2019-05-10T09:06:16.572Z,15.38
2019-05-10T09:06:59.464Z,15.38
2019-05-10T09:07:38.933Z,15.49
2019-05-10T09:08:19.809Z,15.44
2019-05-10T09:09:01.451Z,15.38
2019-05-10T09:09:43.007Z,15.43
2019-05-10T09:10:18.524Z,15.6
2019-05-10T09:10:59.101Z,15.6
2019-05-10T09:11:43.740Z,15.67
2019-05-10T09:12:23.040Z,15.67
2019-05-10T09:13:04.044Z,15.74
2019-05-10T09:13:45.997Z,15.74
2019-05-10T09:14:28.555Z,15.85
2019-05-10T09:15:10.760Z,15.8
2019-05-10T09:15:54.223Z,15.86
2019-05-10T09:16:39.542Z,15.81
2019-05-10T09:17:23.372Z,15.85
2019-05-10T09:18:03.049Z,15.81
2019-05-10T09:18:43.906Z,15.8
2019-05-10T09:19:25.355Z,15.84
2019-05-10T09:20:04.162Z,15.8
2019-05-10T09:20:47.443Z,15.76
2019-05-10T09:21:27.967Z,15.73
2019-05-10T09:22:08.568Z,15.68
2019-05-10T09:22:49.122Z,15.7
2019-05-10T09:23:32.617Z,15.68
2019-05-10T09:24:13.465Z,15.53
2019-05-10T09:24:54.913Z,15.51
2019-05-10T09:25:37.296Z,15.49
2019-05-10T09:26:18.794Z,15.51
2019-05-10T09:27:01.809Z,15.46
2019-05-10T09:27:42.871Z,15.52
2019-05-10T09:28:21.827Z,15.48
2019-05-10T09:29:05.791Z,15.41
2019-05-10T09:29:48.398Z,15.51
2019-05-10T09:30:29.051Z,15.51
2019-05-10T09:31:18.414Z,15.6
2019-05-10T09:31:51.108Z,15.53
2019-05-10T09:32:33.288Z,15.48
2019-05-10T09:33:14.186Z,15.62
2019-05-10T09:33:54.841Z,15.64
2019-05-10T09:34:36.874Z,15.6
2019-05-10T09:35:17.434Z,15.44
2019-05-10T09:36:03.855Z,15.56
2019-05-10T09:36:47.245Z,15.52
2019-05-10T09:37:32.065Z,15.41
2019-05-10T09:38:12.596Z,15.38
2019-05-10T09:38:53.014Z,15.34
2019-05-10T09:39:37.349Z,15.33
2019-05-10T09:41:02.406Z,15.3
2019-05-10T09:41:42.109Z,15.28
2019-05-10T09:42:26.286Z,15.27
2019-05-10T09:43:04.996Z,15.22
2019-05-10T09:43:48.624Z,15.15
2019-05-10T09:44:23.342Z,15.09
2019-05-10T09:45:04.297Z,15.13
2019-05-10T09:45:44.814Z,15.12
2019-05-10T09:46:25.855Z,15.13
2019-05-10T09:47:08.183Z,15.13
2019-05-10T09:47:49.305Z,15.07
2019-05-10T09:48:33.231Z,14.97
2019-05-10T09:49:17.514Z,14.93
2019-05-10T09:49:58.602Z,14.72
2019-05-10T09:50:41.962Z,14.67
2019-05-10T09:51:18.992Z,14.72
2019-05-10T09:51:58.311Z,14.75
2019-05-10T09:52:39.977Z,14.74
2019-05-10T09:54:01.807Z,14.75
2019-05-10T09:54:42.787Z,14.71
2019-05-10T09:55:22.936Z,14.82
2019-05-10T09:56:04.802Z,14.74
2019-05-10T09:56:51.856Z,14.78
2019-05-10T09:57:32.215Z,14.86
2019-05-10T09:58:15.240Z,14.78
2019-05-10T09:58:58.362Z,14.74
2019-05-10T09:59:39.754Z,14.82
2019-05-10T10:00:21.320Z,14.82
2019-05-10T10:01:13.198Z,15.01
2019-05-10T10:01:42.219Z,15.04
2019-05-10T10:02:27.316Z,15.11
2019-05-10T10:03:04.804Z,15.18
2019-05-10T10:03:45.104Z,15.28
2019-05-10T10:04:27.979Z,15.38
2019-05-10T10:05:07.469Z,15.34
2019-05-10T10:05:48.204Z,15.38
2019-05-10T10:06:29.723Z,15.37
2019-05-10T10:07:10.053Z,15.35
2019-05-10T10:07:50.057Z,15.31
2019-05-10T10:08:32.376Z,15.34
2019-05-10T10:09:13.060Z,15.33
2019-05-10T10:09:54.352Z,15.34
2019-05-10T10:10:38.555Z,15.58
2019-05-10T10:11:20.200Z,15.76
2019-05-10T10:12:02.985Z,15.85
2019-05-10T10:12:40.894Z,15.96
2019-05-10T10:13:36.769Z,16.08
2019-05-10T10:14:02.272Z,16.13
2019-05-10T10:14:43.190Z,16.32
2019-05-10T10:15:29.654Z,16.48
2019-05-10T10:16:03.885Z,16.6
2019-05-10T10:16:46.633Z,16.54
2019-05-10T10:17:27.457Z,16.65
2019-05-10T10:18:06.445Z,16.85
2019-05-10T10:18:47.632Z,16.92
2019-05-10T10:19:27.760Z,17.1
2019-05-10T10:20:09.583Z,17.27
2019-05-10T10:20:50.027Z,17.35
2019-05-10T10:21:38.853Z,17.53
2019-05-10T10:22:17.364Z,17.58
2019-05-10T10:22:58.936Z,17.63
2019-05-10T10:23:39.393Z,17.65
2019-05-10T10:24:20.296Z,17.76
2019-05-10T10:25:00.733Z,17.66
2019-05-10T10:25:43.270Z,17.74
2019-05-10T10:26:22.914Z,17.7
2019-05-10T10:27:07.398Z,17.74
2019-05-10T10:27:47.995Z,17.66
2019-05-10T10:28:28.570Z,17.65
2019-05-10T10:29:07.391Z,17.77